sensor_id;sensor_type;location;lat;lon;timestamp;temperature;humidity
69895;DHT22;57172;52.034;5.090;2022-12-26T00:00:44;10.10;86.30
69895;DHT22;57172;52.034;5.090;2022-12-26T00:03:10;10.20;86.30
69895;DHT22;57172;52.034;5.090;2022-12-26T00:05:37;10.10;86.30
69895;DHT22;57172;52.034;5.090;2022-12-26T00:08:04;10.10;86.30
69895;DHT22;57172;52.034;5.090;2022-12-26T00:10:33;10.10;86.40
69895;DHT22;57172;52.034;5.090;2022-12-26T00:13:00;10.10;86.40
69895;DHT22;57172;52.034;5.090;2022-12-26T00:15:47;10.10;86.40
69895;DHT22;57172;52.034;5.090;2022-12-26T00:18:13;10.10;86.30
69895;DHT22;57172;52.034;5.090;2022-12-26T00:20:40;10.10;86.30
69895;DHT22;57172;52.034;5.090;2022-12-26T00:23:08;10.10;86.30
69895;DHT22;57172;52.034;5.090;2022-12-26T00:25:34;10.10;86.30
69895;DHT22;57172;52.034;5.090;2022-12-26T00:28:01;10.10;86.30
69895;DHT22;57172;52.034;5.090;2022-12-26T00:30:28;10.10;86.20
69895;DHT22;57172;52.034;5.090;2022-12-26T00:32:55;10.00;86.30
69895;DHT22;57172;52.034;5.090;2022-12-26T00:35:22;10.00;86.50
69895;DHT22;57172;52.034;5.090;2022-12-26T00:37:49;10.00;86.60
69895;DHT22;57172;52.034;5.090;2022-12-26T00:40:18;9.90;86.70
69895;DHT22;57172;52.034;5.090;2022-12-26T00:42:45;9.90;86.90
69895;DHT22;57172;52.034;5.090;2022-12-26T00:45:12;9.80;87.10
69895;DHT22;57172;52.034;5.090;2022-12-26T00:47:39;9.80;87.20
69895;DHT22;57172;52.034;5.090;2022-12-26T00:50:06;9.90;87.20
69895;DHT22;57172;52.034;5.090;2022-12-26T00:52:41;9.80;87.30
69895;DHT22;57172;52.034;5.090;2022-12-26T00:55:08;9.80;87.30
69895;DHT22;57172;52.034;5.090;2022-12-26T00:57:36;9.80;87.40
69895;DHT22;57172;52.034;5.090;2022-12-26T01:00:04;9.80;87.30
69895;DHT22;57172;52.034;5.090;2022-12-26T01:02:31;9.90;87.40
69895;DHT22;57172;52.034;5.090;2022-12-26T01:05:08;9.80;87.40
69895;DHT22;57172;52.034;5.090;2022-12-26T01:07:36;9.80;87.40
69895;DHT22;57172;52.034;5.090;2022-12-26T01:10:23;9.80;87.50
69895;DHT22;57172;52.034;5.090;2022-12-26T01:12:51;9.80;87.50
69895;DHT22;57172;52.034;5.090;2022-12-26T01:15:18;9.80;87.50
69895;DHT22;57172;52.034;5.090;2022-12-26T01:17:45;9.80;87.50
69895;DHT22;57172;52.034;5.090;2022-12-26T01:20:12;9.80;87.60
69895;DHT22;57172;52.034;5.090;2022-12-26T01:22:39;9.80;87.60
69895;DHT22;57172;52.034;5.090;2022-12-26T01:25:06;9.80;87.70
69895;DHT22;57172;52.034;5.090;2022-12-26T01:27:33;9.80;87.60
69895;DHT22;57172;52.034;5.090;2022-12-26T01:30:00;9.80;87.60
69895;DHT22;57172;52.034;5.090;2022-12-26T01:32:27;9.80;87.60
69895;DHT22;57172;52.034;5.090;2022-12-26T01:34:54;9.90;87.60
69895;DHT22;57172;52.034;5.090;2022-12-26T01:37:22;9.90;87.50
69895;DHT22;57172;52.034;5.090;2022-12-26T01:39:50;9.90;87.50
69895;DHT22;57172;52.034;5.090;2022-12-26T01:42:21;9.90;87.50
69895;DHT22;57172;52.034;5.090;2022-12-26T01:45:27;9.90;87.50
69895;DHT22;57172;52.034;5.090;2022-12-26T01:48:05;9.90;87.40
69895;DHT22;57172;52.034;5.090;2022-12-26T01:53:23;10.00;87.30
69895;DHT22;57172;52.034;5.090;2022-12-26T01:56:00;9.90;87.30
69895;DHT22;57172;52.034;5.090;2022-12-26T01:58:31;9.90;87.20
69895;DHT22;57172;52.034;5.090;2022-12-26T02:01:01;9.90;87.20
69895;DHT22;57172;52.034;5.090;2022-12-26T02:03:29;9.90;87.10
69895;DHT22;57172;52.034;5.090;2022-12-26T02:06:15;9.90;87.10
69895;DHT22;57172;52.034;5.090;2022-12-26T02:08:43;10.00;87.10
69895;DHT22;57172;52.034;5.090;2022-12-26T02:11:26;9.90;87.00
69895;DHT22;57172;52.034;5.090;2022-12-26T02:13:55;10.00;86.90
69895;DHT22;57172;52.034;5.090;2022-12-26T02:16:23;10.00;86.80
69895;DHT22;57172;52.034;5.090;2022-12-26T02:18:51;10.00;86.70
69895;DHT22;57172;52.034;5.090;2022-12-26T02:21:58;9.90;86.60
69895;DHT22;57172;52.034;5.090;2022-12-26T02:24:54;10.00;86.50
69895;DHT22;57172;52.034;5.090;2022-12-26T02:30:51;10.00;86.40
69895;DHT22;57172;52.034;5.090;2022-12-26T02:48:19;9.90;86.20
69895;DHT22;57172;52.034;5.090;2022-12-26T02:51:04;9.90;86.40
69895;DHT22;57172;52.034;5.090;2022-12-26T02:57:04;9.90;86.40
69895;DHT22;57172;52.034;5.090;2022-12-26T03:00:00;10.00;86.50
69895;DHT22;57172;52.034;5.090;2022-12-26T03:02:54;10.00;86.40
69895;DHT22;57172;52.034;5.090;2022-12-26T03:06:30;10.00;86.20
69895;DHT22;57172;52.034;5.090;2022-12-26T03:11:50;10.00;86.10
69895;DHT22;57172;52.034;5.090;2022-12-26T03:14:45;9.90;86.00
69895;DHT22;57172;52.034;5.090;2022-12-26T03:17:28;9.90;86.00
69895;DHT22;57172;52.034;5.090;2022-12-26T03:20:03;9.90;86.10
69895;DHT22;57172;52.034;5.090;2022-12-26T03:22:47;9.90;86.00
69895;DHT22;57172;52.034;5.090;2022-12-26T03:25:39;9.90;86.00
69895;DHT22;57172;52.034;5.090;2022-12-26T03:28:26;9.90;85.90
69895;DHT22;57172;52.034;5.090;2022-12-26T03:30:55;9.90;85.80
69895;DHT22;57172;52.034;5.090;2022-12-26T03:33:32;9.90;85.90
69895;DHT22;57172;52.034;5.090;2022-12-26T03:36:29;9.90;85.90
69895;DHT22;57172;52.034;5.090;2022-12-26T03:52:12;9.90;86.10
69895;DHT22;57172;52.034;5.090;2022-12-26T04:01:17;9.80;85.80
69895;DHT22;57172;52.034;5.090;2022-12-26T04:04:07;9.90;85.70
69895;DHT22;57172;52.034;5.090;2022-12-26T04:06:59;9.80;85.40
69895;DHT22;57172;52.034;5.090;2022-12-26T04:12:49;9.70;85.40
69895;DHT22;57172;52.034;5.090;2022-12-26T04:15:52;9.60;85.50
69895;DHT22;57172;52.034;5.090;2022-12-26T04:21:41;9.60;85.50
69895;DHT22;57172;52.034;5.090;2022-12-26T04:24:33;9.50;85.60
69895;DHT22;57172;52.034;5.090;2022-12-26T04:27:21;9.50;85.70
69895;DHT22;57172;52.034;5.090;2022-12-26T04:30:11;9.40;85.80
69895;DHT22;57172;52.034;5.090;2022-12-26T04:33:03;9.40;85.90
69895;DHT22;57172;52.034;5.090;2022-12-26T04:35:54;9.40;85.90
69895;DHT22;57172;52.034;5.090;2022-12-26T04:38:55;9.40;85.80
69895;DHT22;57172;52.034;5.090;2022-12-26T04:41:44;9.40;85.70
69895;DHT22;57172;52.034;5.090;2022-12-26T04:44:32;9.30;85.70
69895;DHT22;57172;52.034;5.090;2022-12-26T04:46:59;9.30;85.60
69895;DHT22;57172;52.034;5.090;2022-12-26T04:49:26;9.30;85.50
69895;DHT22;57172;52.034;5.090;2022-12-26T04:52:13;9.30;85.50
69895;DHT22;57172;52.034;5.090;2022-12-26T04:54:41;9.30;85.40
69895;DHT22;57172;52.034;5.090;2022-12-26T04:57:10;9.30;85.50
69895;DHT22;57172;52.034;5.090;2022-12-26T04:59:37;9.30;85.50
69895;DHT22;57172;52.034;5.090;2022-12-26T05:02:04;9.30;85.50
69895;DHT22;57172;52.034;5.090;2022-12-26T05:04:52;9.30;85.50
69895;DHT22;57172;52.034;5.090;2022-12-26T05:07:38;9.30;85.60
69895;DHT22;57172;52.034;5.090;2022-12-26T05:10:26;9.30;85.40
69895;DHT22;57172;52.034;5.090;2022-12-26T05:12:54;9.30;85.30
69895;DHT22;57172;52.034;5.090;2022-12-26T05:15:21;9.30;85.20
69895;DHT22;57172;52.034;5.090;2022-12-26T05:17:48;9.30;85.00
69895;DHT22;57172;52.034;5.090;2022-12-26T05:20:34;9.30;85.00
69895;DHT22;57172;52.034;5.090;2022-12-26T05:23:04;9.30;84.90
69895;DHT22;57172;52.034;5.090;2022-12-26T05:25:51;9.30;84.80
69895;DHT22;57172;52.034;5.090;2022-12-26T05:28:37;9.30;84.90
69895;DHT22;57172;52.034;5.090;2022-12-26T05:31:12;9.30;84.90
69895;DHT22;57172;52.034;5.090;2022-12-26T05:33:40;9.30;84.80
69895;DHT22;57172;52.034;5.090;2022-12-26T05:36:29;9.30;84.80
69895;DHT22;57172;52.034;5.090;2022-12-26T05:38:57;9.30;84.70
69895;DHT22;57172;52.034;5.090;2022-12-26T05:41:24;9.30;84.70
69895;DHT22;57172;52.034;5.090;2022-12-26T05:43:51;9.20;84.70
69895;DHT22;57172;52.034;5.090;2022-12-26T05:46:17;9.20;84.70
69895;DHT22;57172;52.034;5.090;2022-12-26T05:48:45;9.20;84.60
69895;DHT22;57172;52.034;5.090;2022-12-26T05:51:12;9.20;84.60
69895;DHT22;57172;52.034;5.090;2022-12-26T05:53:39;9.20;84.70
69895;DHT22;57172;52.034;5.090;2022-12-26T05:56:12;9.20;84.70
69895;DHT22;57172;52.034;5.090;2022-12-26T05:58:40;9.10;84.70
69895;DHT22;57172;52.034;5.090;2022-12-26T06:01:19;9.10;84.70
69895;DHT22;57172;52.034;5.090;2022-12-26T06:03:51;9.20;84.70
69895;DHT22;57172;52.034;5.090;2022-12-26T06:06:19;9.20;84.80
69895;DHT22;57172;52.034;5.090;2022-12-26T06:08:48;9.20;84.90
69895;DHT22;57172;52.034;5.090;2022-12-26T06:11:16;9.20;85.00
69895;DHT22;57172;52.034;5.090;2022-12-26T06:13:43;9.20;85.00
69895;DHT22;57172;52.034;5.090;2022-12-26T06:16:14;9.30;84.90
69895;DHT22;57172;52.034;5.090;2022-12-26T06:18:41;9.30;84.70
69895;DHT22;57172;52.034;5.090;2022-12-26T06:21:14;9.20;84.60
69895;DHT22;57172;52.034;5.090;2022-12-26T06:23:41;9.30;84.60
69895;DHT22;57172;52.034;5.090;2022-12-26T06:26:09;9.30;84.50
69895;DHT22;57172;52.034;5.090;2022-12-26T06:28:39;9.30;84.50
69895;DHT22;57172;52.034;5.090;2022-12-26T06:31:17;9.20;84.50
69895;DHT22;57172;52.034;5.090;2022-12-26T06:33:48;9.20;84.50
69895;DHT22;57172;52.034;5.090;2022-12-26T06:36:20;9.20;84.50
69895;DHT22;57172;52.034;5.090;2022-12-26T06:38:48;9.20;84.60
69895;DHT22;57172;52.034;5.090;2022-12-26T06:41:17;9.20;84.60
69895;DHT22;57172;52.034;5.090;2022-12-26T06:43:44;9.20;84.60
69895;DHT22;57172;52.034;5.090;2022-12-26T06:46:18;9.20;84.60
69895;DHT22;57172;52.034;5.090;2022-12-26T06:48:45;9.20;84.60
69895;DHT22;57172;52.034;5.090;2022-12-26T06:51:17;9.30;84.60
69895;DHT22;57172;52.034;5.090;2022-12-26T06:53:45;9.30;84.70
69895;DHT22;57172;52.034;5.090;2022-12-26T06:56:15;9.30;84.60
69895;DHT22;57172;52.034;5.090;2022-12-26T06:58:42;9.30;84.60
69895;DHT22;57172;52.034;5.090;2022-12-26T07:01:17;9.40;84.50
69895;DHT22;57172;52.034;5.090;2022-12-26T07:03:46;9.40;84.60
69895;DHT22;57172;52.034;5.090;2022-12-26T07:06:19;9.40;84.40
69895;DHT22;57172;52.034;5.090;2022-12-26T07:08:47;9.50;84.10
69895;DHT22;57172;52.034;5.090;2022-12-26T07:11:19;9.50;84.00
69895;DHT22;57172;52.034;5.090;2022-12-26T07:13:46;9.50;83.90
69895;DHT22;57172;52.034;5.090;2022-12-26T07:16:13;9.50;83.70
69895;DHT22;57172;52.034;5.090;2022-12-26T07:18:40;9.40;83.50
69895;DHT22;57172;52.034;5.090;2022-12-26T07:21:10;9.40;83.50
69895;DHT22;57172;52.034;5.090;2022-12-26T07:23:37;9.40;83.70
69895;DHT22;57172;52.034;5.090;2022-12-26T07:26:04;9.40;83.70
69895;DHT22;57172;52.034;5.090;2022-12-26T07:28:32;9.40;83.60
69895;DHT22;57172;52.034;5.090;2022-12-26T07:30:59;9.40;83.70
69895;DHT22;57172;52.034;5.090;2022-12-26T07:33:27;9.50;83.60
69895;DHT22;57172;52.034;5.090;2022-12-26T07:35:59;9.50;83.70
69895;DHT22;57172;52.034;5.090;2022-12-26T07:38:26;9.50;83.60
69895;DHT22;57172;52.034;5.090;2022-12-26T07:40:56;9.60;83.50
69895;DHT22;57172;52.034;5.090;2022-12-26T07:43:24;9.60;83.30
69895;DHT22;57172;52.034;5.090;2022-12-26T07:45:51;9.60;83.50
69895;DHT22;57172;52.034;5.090;2022-12-26T07:48:18;9.70;83.40
69895;DHT22;57172;52.034;5.090;2022-12-26T07:50:45;9.70;83.20
69895;DHT22;57172;52.034;5.090;2022-12-26T07:53:13;9.70;83.20
69895;DHT22;57172;52.034;5.090;2022-12-26T07:55:40;9.70;83.10
69895;DHT22;57172;52.034;5.090;2022-12-26T07:58:07;9.80;83.00
69895;DHT22;57172;52.034;5.090;2022-12-26T08:00:34;9.80;82.90
69895;DHT22;57172;52.034;5.090;2022-12-26T08:03:01;9.80;82.80
69895;DHT22;57172;52.034;5.090;2022-12-26T08:05:34;9.80;82.90
69895;DHT22;57172;52.034;5.090;2022-12-26T08:08:01;9.70;83.20
69895;DHT22;57172;52.034;5.090;2022-12-26T08:10:28;9.70;83.30
69895;DHT22;57172;52.034;5.090;2022-12-26T08:12:55;9.70;83.40
69895;DHT22;57172;52.034;5.090;2022-12-26T08:15:21;9.70;83.50
69895;DHT22;57172;52.034;5.090;2022-12-26T08:17:48;9.70;83.50
69895;DHT22;57172;52.034;5.090;2022-12-26T08:20:15;9.70;83.50
69895;DHT22;57172;52.034;5.090;2022-12-26T08:22:42;9.80;83.60
69895;DHT22;57172;52.034;5.090;2022-12-26T08:25:09;9.80;83.50
69895;DHT22;57172;52.034;5.090;2022-12-26T08:27:37;9.90;83.50
69895;DHT22;57172;52.034;5.090;2022-12-26T08:30:04;9.90;83.60
69895;DHT22;57172;52.034;5.090;2022-12-26T08:32:31;9.90;83.70
69895;DHT22;57172;52.034;5.090;2022-12-26T08:34:58;9.90;83.50
69895;DHT22;57172;52.034;5.090;2022-12-26T08:37:26;10.00;83.50
69895;DHT22;57172;52.034;5.090;2022-12-26T08:39:53;10.00;83.20
69895;DHT22;57172;52.034;5.090;2022-12-26T08:42:21;10.00;83.10
69895;DHT22;57172;52.034;5.090;2022-12-26T08:44:48;10.10;82.90
69895;DHT22;57172;52.034;5.090;2022-12-26T08:47:15;10.10;82.90
69895;DHT22;57172;52.034;5.090;2022-12-26T08:49:42;10.20;82.50
69895;DHT22;57172;52.034;5.090;2022-12-26T08:52:09;10.10;82.40
69895;DHT22;57172;52.034;5.090;2022-12-26T08:55:01;10.00;82.70
69895;DHT22;57172;52.034;5.090;2022-12-26T08:57:29;9.90;83.20
69895;DHT22;57172;52.034;5.090;2022-12-26T08:59:55;9.80;83.70
69895;DHT22;57172;52.034;5.090;2022-12-26T09:02:22;9.80;84.20
69895;DHT22;57172;52.034;5.090;2022-12-26T09:04:52;9.70;84.50
69895;DHT22;57172;52.034;5.090;2022-12-26T09:07:18;9.70;84.90
69895;DHT22;57172;52.034;5.090;2022-12-26T09:09:46;9.70;85.10
69895;DHT22;57172;52.034;5.090;2022-12-26T09:12:13;9.70;85.10
69895;DHT22;57172;52.034;5.090;2022-12-26T09:14:40;9.70;85.10
69895;DHT22;57172;52.034;5.090;2022-12-26T09:17:09;9.70;85.10
69895;DHT22;57172;52.034;5.090;2022-12-26T09:19:36;9.70;85.10
69895;DHT22;57172;52.034;5.090;2022-12-26T09:22:03;9.70;85.00
69895;DHT22;57172;52.034;5.090;2022-12-26T09:24:48;9.70;85.20
69895;DHT22;57172;52.034;5.090;2022-12-26T09:27:15;9.70;85.10
69895;DHT22;57172;52.034;5.090;2022-12-26T09:29:42;9.70;85.10
69895;DHT22;57172;52.034;5.090;2022-12-26T09:32:09;9.60;85.30
69895;DHT22;57172;52.034;5.090;2022-12-26T09:34:36;9.60;85.00
69895;DHT22;57172;52.034;5.090;2022-12-26T09:37:03;9.70;85.10
69895;DHT22;57172;52.034;5.090;2022-12-26T09:39:30;9.70;85.00
69895;DHT22;57172;52.034;5.090;2022-12-26T09:47:33;9.60;83.40
69895;DHT22;57172;52.034;5.090;2022-12-26T09:55:36;9.30;82.60
69895;DHT22;57172;52.034;5.090;2022-12-26T09:58:29;9.30;82.10
69895;DHT22;57172;52.034;5.090;2022-12-26T10:01:00;9.20;82.10
69895;DHT22;57172;52.034;5.090;2022-12-26T10:03:29;9.10;81.60
69895;DHT22;57172;52.034;5.090;2022-12-26T10:14:51;9.10;82.10
69895;DHT22;57172;52.034;5.090;2022-12-26T10:30:56;8.80;80.00
69895;DHT22;57172;52.034;5.090;2022-12-26T10:33:42;8.90;79.70
69895;DHT22;57172;52.034;5.090;2022-12-26T10:36:17;8.90;79.30
69895;DHT22;57172;52.034;5.090;2022-12-26T10:38:49;8.90;78.80
69895;DHT22;57172;52.034;5.090;2022-12-26T10:41:43;8.90;77.90
69895;DHT22;57172;52.034;5.090;2022-12-26T10:44:13;8.80;77.70
69895;DHT22;57172;52.034;5.090;2022-12-26T10:47:00;8.80;77.40
69895;DHT22;57172;52.034;5.090;2022-12-26T10:49:30;8.70;77.30
69895;DHT22;57172;52.034;5.090;2022-12-26T10:51:59;8.70;76.90
69895;DHT22;57172;52.034;5.090;2022-12-26T10:54:28;8.60;76.60
69895;DHT22;57172;52.034;5.090;2022-12-26T10:56:57;8.60;77.80
69895;DHT22;57172;52.034;5.090;2022-12-26T10:59:41;8.80;78.30
69895;DHT22;57172;52.034;5.090;2022-12-26T11:02:28;8.90;78.30
69895;DHT22;57172;52.034;5.090;2022-12-26T11:05:07;9.10;78.10
69895;DHT22;57172;52.034;5.090;2022-12-26T11:07:55;9.10;77.20
69895;DHT22;57172;52.034;5.090;2022-12-26T11:10:30;9.30;79.00
69895;DHT22;57172;52.034;5.090;2022-12-26T11:13:03;9.40;76.70
69895;DHT22;57172;52.034;5.090;2022-12-26T11:15:36;9.40;76.40
69895;DHT22;57172;52.034;5.090;2022-12-26T11:20:34;9.30;75.20
69895;DHT22;57172;52.034;5.090;2022-12-26T11:23:26;9.20;74.70
69895;DHT22;57172;52.034;5.090;2022-12-26T11:25:56;9.10;75.20
69895;DHT22;57172;52.034;5.090;2022-12-26T11:28:30;9.10;75.20
69895;DHT22;57172;52.034;5.090;2022-12-26T11:30:59;9.10;74.60
69895;DHT22;57172;52.034;5.090;2022-12-26T11:33:41;9.00;74.90
69895;DHT22;57172;52.034;5.090;2022-12-26T11:36:17;9.10;76.40
69895;DHT22;57172;52.034;5.090;2022-12-26T11:38:53;9.60;81.40
69895;DHT22;57172;52.034;5.090;2022-12-26T11:46:59;11.10;78.30
69895;DHT22;57172;52.034;5.090;2022-12-26T11:51:57;11.10;76.90
69895;DHT22;57172;52.034;5.090;2022-12-26T11:54:34;11.40;74.20
69895;DHT22;57172;52.034;5.090;2022-12-26T11:59:46;11.30;71.20
69895;DHT22;57172;52.034;5.090;2022-12-26T12:04:43;11.00;69.40
69895;DHT22;57172;52.034;5.090;2022-12-26T12:13:09;10.50;66.80
69895;DHT22;57172;52.034;5.090;2022-12-26T12:15:46;10.30;66.80
69895;DHT22;57172;52.034;5.090;2022-12-26T12:29:59;10.40;66.90
69895;DHT22;57172;52.034;5.090;2022-12-26T13:00:46;9.40;66.00
69895;DHT22;57172;52.034;5.090;2022-12-26T13:06:28;10.10;69.30
69895;DHT22;57172;52.034;5.090;2022-12-26T13:09:19;10.50;68.90
69895;DHT22;57172;52.034;5.090;2022-12-26T13:11:55;10.90;68.10
69895;DHT22;57172;52.034;5.090;2022-12-26T13:14:35;11.40;67.60
69895;DHT22;57172;52.034;5.090;2022-12-26T13:17:10;11.80;65.20
69895;DHT22;57172;52.034;5.090;2022-12-26T13:20:04;12.20;62.90
69895;DHT22;57172;52.034;5.090;2022-12-26T13:22:41;12.40;61.70
69895;DHT22;57172;52.034;5.090;2022-12-26T13:25:41;12.70;60.60
69895;DHT22;57172;52.034;5.090;2022-12-26T13:28:24;12.90;59.40
69895;DHT22;57172;52.034;5.090;2022-12-26T13:30:54;12.80;58.20
69895;DHT22;57172;52.034;5.090;2022-12-26T13:33:21;12.90;59.60
69895;DHT22;57172;52.034;5.090;2022-12-26T13:35:56;13.10;57.80
69895;DHT22;57172;52.034;5.090;2022-12-26T13:38:25;12.90;56.00
69895;DHT22;57172;52.034;5.090;2022-12-26T13:41:19;12.60;55.00
69895;DHT22;57172;52.034;5.090;2022-12-26T13:44:19;12.10;56.00
69895;DHT22;57172;52.034;5.090;2022-12-26T13:52:23;12.50;59.20
69895;DHT22;57172;52.034;5.090;2022-12-26T13:57:41;12.80;58.00
69895;DHT22;57172;52.034;5.090;2022-12-26T14:00:21;12.90;56.70
69895;DHT22;57172;52.034;5.090;2022-12-26T14:03:40;13.00;56.80
69895;DHT22;57172;52.034;5.090;2022-12-26T14:06:35;13.10;55.40
69895;DHT22;57172;52.034;5.090;2022-12-26T14:31:35;9.70;56.80
69895;DHT22;57172;52.034;5.090;2022-12-26T14:36:49;9.20;57.80
69895;DHT22;57172;52.034;5.090;2022-12-26T14:39:27;9.00;58.20
69895;DHT22;57172;52.034;5.090;2022-12-26T14:44:55;8.70;59.20
69895;DHT22;57172;52.034;5.090;2022-12-26T14:47:45;8.60;59.60
69895;DHT22;57172;52.034;5.090;2022-12-26T15:15:46;7.90;60.60
69895;DHT22;57172;52.034;5.090;2022-12-26T15:32:30;7.30;61.60
69895;DHT22;57172;52.034;5.090;2022-12-26T15:35:12;7.20;61.80
69895;DHT22;57172;52.034;5.090;2022-12-26T15:40:49;7.10;62.30
69895;DHT22;57172;52.034;5.090;2022-12-26T15:43:36;7.00;62.50
69895;DHT22;57172;52.034;5.090;2022-12-26T15:52:00;6.80;63.10
69895;DHT22;57172;52.034;5.090;2022-12-26T16:00:49;6.60;63.60
69895;DHT22;57172;52.034;5.090;2022-12-26T16:03:37;6.60;63.70
69895;DHT22;57172;52.034;5.090;2022-12-26T16:06:31;6.50;63.90
69895;DHT22;57172;52.034;5.090;2022-12-26T16:11:47;6.40;64.30
69895;DHT22;57172;52.034;5.090;2022-12-26T16:14:34;6.30;64.70
69895;DHT22;57172;52.034;5.090;2022-12-26T16:17:18;6.30;64.80
69895;DHT22;57172;52.034;5.090;2022-12-26T16:19:50;6.30;64.80
69895;DHT22;57172;52.034;5.090;2022-12-26T16:22:24;6.30;64.90
69895;DHT22;57172;52.034;5.090;2022-12-26T16:25:15;6.20;65.10
69895;DHT22;57172;52.034;5.090;2022-12-26T16:27:44;6.20;65.20
69895;DHT22;57172;52.034;5.090;2022-12-26T16:30:18;6.10;65.30
69895;DHT22;57172;52.034;5.090;2022-12-26T16:32:46;6.10;65.40
69895;DHT22;57172;52.034;5.090;2022-12-26T16:35:19;6.10;65.50
69895;DHT22;57172;52.034;5.090;2022-12-26T16:37:48;6.00;65.60
69895;DHT22;57172;52.034;5.090;2022-12-26T16:40:29;5.90;65.70
69895;DHT22;57172;52.034;5.090;2022-12-26T16:45:45;5.90;65.80
69895;DHT22;57172;52.034;5.090;2022-12-26T16:48:16;5.80;65.90
69895;DHT22;57172;52.034;5.090;2022-12-26T16:50:49;5.80;66.10
69895;DHT22;57172;52.034;5.090;2022-12-26T16:53:39;5.80;66.20
69895;DHT22;57172;52.034;5.090;2022-12-26T16:58:47;5.70;66.50
69895;DHT22;57172;52.034;5.090;2022-12-26T17:01:18;5.60;66.60
69895;DHT22;57172;52.034;5.090;2022-12-26T17:04:05;5.60;66.80
69895;DHT22;57172;52.034;5.090;2022-12-26T17:06:36;5.60;67.00
69895;DHT22;57172;52.034;5.090;2022-12-26T17:09:13;5.60;67.20
69895;DHT22;57172;52.034;5.090;2022-12-26T17:11:53;5.60;67.20
69895;DHT22;57172;52.034;5.090;2022-12-26T17:14:29;5.60;67.30
69895;DHT22;57172;52.034;5.090;2022-12-26T17:17:02;5.60;67.20
69895;DHT22;57172;52.034;5.090;2022-12-26T17:19:31;5.50;67.20
69895;DHT22;57172;52.034;5.090;2022-12-26T17:22:20;5.50;67.30
69895;DHT22;57172;52.034;5.090;2022-12-26T17:24:49;5.50;67.50
69895;DHT22;57172;52.034;5.090;2022-12-26T17:29:58;5.40;67.80
69895;DHT22;57172;52.034;5.090;2022-12-26T17:32:30;5.30;68.10
69895;DHT22;57172;52.034;5.090;2022-12-26T17:35:00;5.20;68.20
69895;DHT22;57172;52.034;5.090;2022-12-26T17:37:27;5.20;68.30
69895;DHT22;57172;52.034;5.090;2022-12-26T17:42:30;5.20;68.60
69895;DHT22;57172;52.034;5.090;2022-12-26T17:45:03;5.20;68.80
69895;DHT22;57172;52.034;5.090;2022-12-26T17:47:30;5.20;69.00
69895;DHT22;57172;52.034;5.090;2022-12-26T17:49:57;5.20;69.10
69895;DHT22;57172;52.034;5.090;2022-12-26T17:52:27;5.20;69.20
69895;DHT22;57172;52.034;5.090;2022-12-26T17:54:56;5.20;69.40
69895;DHT22;57172;52.034;5.090;2022-12-26T17:57:25;5.30;69.70
69895;DHT22;57172;52.034;5.090;2022-12-26T17:59:53;5.20;70.10
69895;DHT22;57172;52.034;5.090;2022-12-26T18:02:21;5.20;70.60
69895;DHT22;57172;52.034;5.090;2022-12-26T18:04:48;5.20;70.80
69895;DHT22;57172;52.034;5.090;2022-12-26T18:07:21;5.30;70.70
69895;DHT22;57172;52.034;5.090;2022-12-26T18:09:58;5.30;71.00
69895;DHT22;57172;52.034;5.090;2022-12-26T18:12:26;5.30;71.10
69895;DHT22;57172;52.034;5.090;2022-12-26T18:14:53;5.30;71.10
69895;DHT22;57172;52.034;5.090;2022-12-26T18:17:26;5.30;71.00
69895;DHT22;57172;52.034;5.090;2022-12-26T18:19:54;5.30;71.00
69895;DHT22;57172;52.034;5.090;2022-12-26T18:22:23;5.30;71.00
69895;DHT22;57172;52.034;5.090;2022-12-26T18:24:50;5.30;71.10
69895;DHT22;57172;52.034;5.090;2022-12-26T18:27:20;5.30;71.00
69895;DHT22;57172;52.034;5.090;2022-12-26T18:29:48;5.30;71.00
69895;DHT22;57172;52.034;5.090;2022-12-26T18:32:25;5.20;71.10
69895;DHT22;57172;52.034;5.090;2022-12-26T18:34:52;5.20;71.20
69895;DHT22;57172;52.034;5.090;2022-12-26T18:37:21;5.20;71.30
69895;DHT22;57172;52.034;5.090;2022-12-26T18:39:48;5.20;71.40
69895;DHT22;57172;52.034;5.090;2022-12-26T18:42:16;5.20;71.30
69895;DHT22;57172;52.034;5.090;2022-12-26T18:44:43;5.20;71.40
69895;DHT22;57172;52.034;5.090;2022-12-26T18:47:16;5.20;71.40
69895;DHT22;57172;52.034;5.090;2022-12-26T18:49:43;5.20;71.40
69895;DHT22;57172;52.034;5.090;2022-12-26T18:52:11;5.20;71.30
69895;DHT22;57172;52.034;5.090;2022-12-26T18:54:43;5.20;71.30
69895;DHT22;57172;52.034;5.090;2022-12-26T18:57:15;5.30;71.20
69895;DHT22;57172;52.034;5.090;2022-12-26T18:59:43;5.30;71.30
69895;DHT22;57172;52.034;5.090;2022-12-26T19:02:16;5.30;71.40
69895;DHT22;57172;52.034;5.090;2022-12-26T19:04:44;5.30;71.40
69895;DHT22;57172;52.034;5.090;2022-12-26T19:07:15;5.40;71.30
69895;DHT22;57172;52.034;5.090;2022-12-26T19:09:44;5.40;71.40
69895;DHT22;57172;52.034;5.090;2022-12-26T19:12:11;5.40;71.40
69895;DHT22;57172;52.034;5.090;2022-12-26T19:14:39;5.40;71.20
69895;DHT22;57172;52.034;5.090;2022-12-26T19:17:06;5.40;71.10
69895;DHT22;57172;52.034;5.090;2022-12-26T19:19:33;5.40;71.00
69895;DHT22;57172;52.034;5.090;2022-12-26T19:22:00;5.40;71.00
69895;DHT22;57172;52.034;5.090;2022-12-26T19:24:27;5.40;71.10
69895;DHT22;57172;52.034;5.090;2022-12-26T19:26:54;5.30;71.10
69895;DHT22;57172;52.034;5.090;2022-12-26T19:29:21;5.30;71.20
69895;DHT22;57172;52.034;5.090;2022-12-26T19:31:48;5.30;71.30
69895;DHT22;57172;52.034;5.090;2022-12-26T19:34:15;5.30;71.40
69895;DHT22;57172;52.034;5.090;2022-12-26T19:36:42;5.30;71.40
69895;DHT22;57172;52.034;5.090;2022-12-26T19:39:09;5.30;71.30
69895;DHT22;57172;52.034;5.090;2022-12-26T19:41:36;5.30;71.20
69895;DHT22;57172;52.034;5.090;2022-12-26T19:44:03;5.30;71.10
69895;DHT22;57172;52.034;5.090;2022-12-26T19:46:30;5.30;71.10
69895;DHT22;57172;52.034;5.090;2022-12-26T19:48:57;5.30;71.10
69895;DHT22;57172;52.034;5.090;2022-12-26T19:51:24;5.30;71.00
69895;DHT22;57172;52.034;5.090;2022-12-26T19:53:51;5.30;71.00
69895;DHT22;57172;52.034;5.090;2022-12-26T19:56:23;5.30;71.00
69895;DHT22;57172;52.034;5.090;2022-12-26T19:58:51;5.30;70.90
69895;DHT22;57172;52.034;5.090;2022-12-26T20:01:27;5.30;70.80
69895;DHT22;57172;52.034;5.090;2022-12-26T20:04:02;5.30;70.80
69895;DHT22;57172;52.034;5.090;2022-12-26T20:06:31;5.30;70.70
69895;DHT22;57172;52.034;5.090;2022-12-26T20:09:01;5.30;70.80
69895;DHT22;57172;52.034;5.090;2022-12-26T20:11:31;5.20;70.80
69895;DHT22;57172;52.034;5.090;2022-12-26T20:14:00;5.20;70.80
69895;DHT22;57172;52.034;5.090;2022-12-26T20:16:27;5.20;70.70
69895;DHT22;57172;52.034;5.090;2022-12-26T20:19:14;5.20;70.80
69895;DHT22;57172;52.034;5.090;2022-12-26T20:21:41;5.20;70.70
69895;DHT22;57172;52.034;5.090;2022-12-26T20:24:10;5.20;70.70
69895;DHT22;57172;52.034;5.090;2022-12-26T20:26:37;5.20;70.60
69895;DHT22;57172;52.034;5.090;2022-12-26T20:29:04;5.20;70.40
69895;DHT22;57172;52.034;5.090;2022-12-26T20:31:32;5.20;70.40
69895;DHT22;57172;52.034;5.090;2022-12-26T20:33:59;5.20;70.20
69895;DHT22;57172;52.034;5.090;2022-12-26T20:36:28;5.20;70.30